Culpeper, Virginia
Current Conditions -  °F | °C
As of 4:15 PM on Monday 22 Dec 2014 (Local Time) from KCJR Reporting Station
Light Rain Light Rain  
Wind Chill: 32°   Ceiling: 600
Heat Index: 36°   Visibility: 1.2mi
Dew Point: 34°   Wind: 5mph
Humidity: 93%   Direction: 360°N
Pressure: 30.17"   Gusts: NA
Location:  38.47°N, 78°W
Report Text: KCJR 222115Z AUTO 36004KT 1 1/4SM -RA OVC006 02/01 A3017 RMK AO2 P0001
Loading
Personal Weather Stations






























Interactive Weather Map New forecast layout! Learn more

10-Day Weather Forecast

Advertisements
Track Severe Weather on mobile